sensor_id;sensor_type;location;lat;lon;timestamp;pressure;altitude;pressure_sealevel;temperature;humidity
4024;BME280;2026;51.002;13.668;2023-02-17T00:00:34;99509.31;;;8.60;75.00
4024;BME280;2026;51.002;13.668;2023-02-17T00:05:39;99511.56;;;8.63;74.87
4024;BME280;2026;51.002;13.668;2023-02-17T00:10:42;99509.75;;;8.63;74.44
4024;BME280;2026;51.002;13.668;2023-02-17T00:15:47;99527.25;;;8.63;74.23
4024;BME280;2026;51.002;13.668;2023-02-17T00:20:50;99520.78;;;8.59;74.07
4024;BME280;2026;51.002;13.668;2023-02-17T00:25:53;99509.81;;;8.70;73.54
4024;BME280;2026;51.002;13.668;2023-02-17T00:30:57;99504.09;;;8.81;72.73
4024;BME280;2026;51.002;13.668;2023-02-17T00:36:03;99505.84;;;8.74;72.68
4024;BME280;2026;51.002;13.668;2023-02-17T00:41:06;99498.78;;;8.75;72.86
4024;BME280;2026;51.002;13.668;2023-02-17T00:46:10;99489.59;;;8.79;72.70
4024;BME280;2026;51.002;13.668;2023-02-17T00:51:14;99492.81;;;8.81;72.24
4024;BME280;2026;51.002;13.668;2023-02-17T00:56:17;99487.16;;;8.77;72.31
4024;BME280;2026;51.002;13.668;2023-02-17T01:01:22;99481.97;;;8.84;71.62
4024;BME280;2026;51.002;13.668;2023-02-17T01:06:27;99473.63;;;8.95;71.79
4024;BME280;2026;51.002;13.668;2023-02-17T01:11:32;99478.41;;;8.92;71.98
4024;BME280;2026;51.002;13.668;2023-02-17T01:16:38;99475.25;;;9.03;70.94
4024;BME280;2026;51.002;13.668;2023-02-17T01:21:41;99459.53;;;8.96;71.32
4024;BME280;2026;51.002;13.668;2023-02-17T01:26:44;99463.78;;;9.04;71.47
4024;BME280;2026;51.002;13.668;2023-02-17T01:31:49;99470.03;;;9.03;71.17
4024;BME280;2026;51.002;13.668;2023-02-17T01:36:52;99465.44;;;9.05;70.76
4024;BME280;2026;51.002;13.668;2023-02-17T01:41:55;99445.53;;;9.11;71.52
4024;BME280;2026;51.002;13.668;2023-02-17T01:46:59;99453.66;;;9.23;71.59
4024;BME280;2026;51.002;13.668;2023-02-17T01:52:07;99438.75;;;9.23;72.07
4024;BME280;2026;51.002;13.668;2023-02-17T01:57:14;99442.22;;;9.31;72.00
4024;BME280;2026;51.002;13.668;2023-02-17T02:02:21;99430.31;;;9.21;72.09
4024;BME280;2026;51.002;13.668;2023-02-17T02:07:26;99417.03;;;9.23;72.31
4024;BME280;2026;51.002;13.668;2023-02-17T02:12:31;99412.16;;;9.20;72.71
4024;BME280;2026;51.002;13.668;2023-02-17T02:17:44;99418.66;;;9.24;73.29
4024;BME280;2026;51.002;13.668;2023-02-17T02:23:03;99400.16;;;9.26;73.11
4024;BME280;2026;51.002;13.668;2023-02-17T02:28:21;99386.66;;;9.29;72.97
4024;BME280;2026;51.002;13.668;2023-02-17T02:33:35;99369.53;;;9.26;72.76
4024;BME280;2026;51.002;13.668;2023-02-17T02:38:42;99362.09;;;9.23;72.83
4024;BME280;2026;51.002;13.668;2023-02-17T02:43:48;99359.91;;;9.27;72.85
4024;BME280;2026;51.002;13.668;2023-02-17T02:48:53;99355.44;;;9.20;72.91
4024;BME280;2026;51.002;13.668;2023-02-17T02:54:18;99345.13;;;9.12;75.51
4024;BME280;2026;51.002;13.668;2023-02-17T02:59:33;99349.34;;;9.06;75.42
4024;BME280;2026;51.002;13.668;2023-02-17T03:04:50;99347.34;;;9.08;75.24
4024;BME280;2026;51.002;13.668;2023-02-17T03:09:58;99345.31;;;9.10;75.65
4024;BME280;2026;51.002;13.668;2023-02-17T03:15:05;99345.28;;;8.97;77.08
4024;BME280;2026;51.002;13.668;2023-02-17T03:20:14;99345.66;;;8.94;77.77
4024;BME280;2026;51.002;13.668;2023-02-17T03:25:17;99328.34;;;8.93;77.76
4024;BME280;2026;51.002;13.668;2023-02-17T03:30:21;99326.34;;;8.95;77.80
4024;BME280;2026;51.002;13.668;2023-02-17T03:35:25;99328.34;;;8.93;77.39
4024;BME280;2026;51.002;13.668;2023-02-17T03:40:28;99315.25;;;8.86;77.75
4024;BME280;2026;51.002;13.668;2023-02-17T03:45:34;99324.06;;;8.85;78.57
4024;BME280;2026;51.002;13.668;2023-02-17T03:50:39;99328.13;;;8.88;78.49
4024;BME280;2026;51.002;13.668;2023-02-17T03:55:42;99325.91;;;8.91;78.26
4024;BME280;2026;51.002;13.668;2023-02-17T04:00:45;99324.91;;;8.92;78.96
4024;BME280;2026;51.002;13.668;2023-02-17T04:05:49;99320.06;;;8.82;80.42
4024;BME280;2026;51.002;13.668;2023-02-17T04:10:52;99332.50;;;8.80;80.48
4024;BME280;2026;51.002;13.668;2023-02-17T04:15:56;99325.25;;;8.76;81.34
4024;BME280;2026;51.002;13.668;2023-02-17T04:21:01;99331.78;;;8.58;84.55
4024;BME280;2026;51.002;13.668;2023-02-17T04:26:04;99314.72;;;8.34;87.00
4024;BME280;2026;51.002;13.668;2023-02-17T04:31:08;99326.16;;;8.33;87.52
4024;BME280;2026;51.002;13.668;2023-02-17T04:36:13;99300.25;;;8.31;87.41
4024;BME280;2026;51.002;13.668;2023-02-17T04:41:16;99293.03;;;8.33;86.86
4024;BME280;2026;51.002;13.668;2023-02-17T04:46:19;99292.97;;;8.26;87.35
4024;BME280;2026;51.002;13.668;2023-02-17T04:51:23;99287.66;;;8.13;88.75
4024;BME280;2026;51.002;13.668;2023-02-17T04:56:26;99291.34;;;8.25;88.55
4024;BME280;2026;51.002;13.668;2023-02-17T05:01:29;99292.34;;;8.24;88.71
4024;BME280;2026;51.002;13.668;2023-02-17T05:06:33;99277.56;;;8.10;89.04
4024;BME280;2026;51.002;13.668;2023-02-17T05:11:36;99277.28;;;8.26;89.12
4024;BME280;2026;51.002;13.668;2023-02-17T05:16:39;99284.06;;;8.14;91.07
4024;BME280;2026;51.002;13.668;2023-02-17T05:21:44;99271.59;;;8.16;91.09
4024;BME280;2026;51.002;13.668;2023-02-17T05:26:47;99260.97;;;8.18;91.47
4024;BME280;2026;51.002;13.668;2023-02-17T05:31:50;99251.97;;;8.20;91.67
4024;BME280;2026;51.002;13.668;2023-02-17T05:36:54;99261.75;;;8.18;93.21
4024;BME280;2026;51.002;13.668;2023-02-17T05:41:57;99265.38;;;8.17;92.80
4024;BME280;2026;51.002;13.668;2023-02-17T05:47:00;99251.53;;;8.17;93.72
4024;BME280;2026;51.002;13.668;2023-02-17T05:52:04;99246.53;;;8.22;93.91
4024;BME280;2026;51.002;13.668;2023-02-17T05:57:07;99247.34;;;8.22;93.54
4024;BME280;2026;51.002;13.668;2023-02-17T06:02:10;99253.38;;;8.23;93.35
4024;BME280;2026;51.002;13.668;2023-02-17T06:07:15;99237.91;;;8.21;93.82
4024;BME280;2026;51.002;13.668;2023-02-17T06:12:17;99241.50;;;8.20;93.87
4024;BME280;2026;51.002;13.668;2023-02-17T06:17:20;99246.63;;;8.35;92.42
4024;BME280;2026;51.002;13.668;2023-02-17T06:22:25;99238.81;;;8.42;91.98
4024;BME280;2026;51.002;13.668;2023-02-17T06:27:28;99235.63;;;8.47;91.70
4024;BME280;2026;51.002;13.668;2023-02-17T06:32:30;99242.06;;;8.44;91.05
4024;BME280;2026;51.002;13.668;2023-02-17T06:37:36;99237.66;;;8.51;91.28
4024;BME280;2026;51.002;13.668;2023-02-17T06:42:39;99252.59;;;8.64;89.43
4024;BME280;2026;51.002;13.668;2023-02-17T06:47:42;99249.59;;;8.67;89.34
4024;BME280;2026;51.002;13.668;2023-02-17T06:52:46;99240.97;;;8.74;89.00
4024;BME280;2026;51.002;13.668;2023-02-17T06:57:49;99258.28;;;8.75;88.68
4024;BME280;2026;51.002;13.668;2023-02-17T07:02:52;99230.34;;;8.75;88.88
4024;BME280;2026;51.002;13.668;2023-02-17T07:07:57;99241.00;;;8.80;88.89
4024;BME280;2026;51.002;13.668;2023-02-17T07:13:00;99241.00;;;8.80;88.54
4024;BME280;2026;51.002;13.668;2023-02-17T07:18:03;99263.34;;;8.83;89.00
4024;BME280;2026;51.002;13.668;2023-02-17T07:23:08;99237.19;;;8.83;89.02
4024;BME280;2026;51.002;13.668;2023-02-17T07:28:11;99241.03;;;8.87;88.91
4024;BME280;2026;51.002;13.668;2023-02-17T07:33:14;99234.19;;;8.86;89.06
4024;BME280;2026;51.002;13.668;2023-02-17T07:38:18;99234.19;;;8.86;89.62
4024;BME280;2026;51.002;13.668;2023-02-17T07:43:21;99229.38;;;8.90;89.79
4024;BME280;2026;51.002;13.668;2023-02-17T07:48:24;99227.75;;;8.89;89.46
4024;BME280;2026;51.002;13.668;2023-02-17T07:53:28;99249.50;;;8.89;89.55
4024;BME280;2026;51.002;13.668;2023-02-17T07:58:32;99227.81;;;9.02;88.88
4024;BME280;2026;51.002;13.668;2023-02-17T08:03:35;99225.38;;;9.01;89.31
4024;BME280;2026;51.002;13.668;2023-02-17T08:08:40;99231.66;;;9.06;89.02
4024;BME280;2026;51.002;13.668;2023-02-17T08:14:01;99243.91;;;9.13;89.13
4024;BME280;2026;51.002;13.668;2023-02-17T08:19:04;99233.47;;;9.19;88.25
4024;BME280;2026;51.002;13.668;2023-02-17T08:24:09;99240.75;;;9.24;88.35
4024;BME280;2026;51.002;13.668;2023-02-17T08:29:12;99233.88;;;9.16;88.27
4024;BME280;2026;51.002;13.668;2023-02-17T08:34:16;99243.13;;;9.19;87.91
4024;BME280;2026;51.002;13.668;2023-02-17T08:39:21;99233.72;;;9.25;88.05
4024;BME280;2026;51.002;13.668;2023-02-17T08:44:25;99229.69;;;9.29;87.07
4024;BME280;2026;51.002;13.668;2023-02-17T08:49:28;99224.66;;;9.41;86.62
4024;BME280;2026;51.002;13.668;2023-02-17T08:54:35;99228.09;;;9.48;85.89
4024;BME280;2026;51.002;13.668;2023-02-17T08:59:38;99224.13;;;9.52;85.78
4024;BME280;2026;51.002;13.668;2023-02-17T09:04:41;99203.97;;;9.59;85.80
4024;BME280;2026;51.002;13.668;2023-02-17T09:09:46;99188.84;;;9.75;84.88
4024;BME280;2026;51.002;13.668;2023-02-17T09:14:49;99182.19;;;9.99;83.93
4024;BME280;2026;51.002;13.668;2023-02-17T09:19:52;99178.31;;;10.22;82.61
4024;BME280;2026;51.002;13.668;2023-02-17T09:24:56;99174.22;;;10.46;81.92
4024;BME280;2026;51.002;13.668;2023-02-17T09:30:00;99165.25;;;10.61;80.96
4024;BME280;2026;51.002;13.668;2023-02-17T09:35:03;99167.88;;;11.00;79.71
4024;BME280;2026;51.002;13.668;2023-02-17T09:40:15;99172.53;;;10.98;79.12
4024;BME280;2026;51.002;13.668;2023-02-17T09:45:21;99160.31;;;10.85;79.26
4024;BME280;2026;51.002;13.668;2023-02-17T09:50:30;99162.94;;;10.85;78.74
4024;BME280;2026;51.002;13.668;2023-02-17T09:55:38;99139.28;;;10.92;78.43
4024;BME280;2026;51.002;13.668;2023-02-17T10:00:45;99144.91;;;10.95;78.57
4024;BME280;2026;51.002;13.668;2023-02-17T10:05:58;99132.59;;;10.96;78.35
4024;BME280;2026;51.002;13.668;2023-02-17T10:11:15;99134.88;;;10.85;78.83
4024;BME280;2026;51.002;13.668;2023-02-17T10:16:22;99124.06;;;10.68;79.31
4024;BME280;2026;51.002;13.668;2023-02-17T10:21:30;99131.78;;;10.63;79.18
4024;BME280;2026;51.002;13.668;2023-02-17T10:26:56;99113.09;;;10.85;79.92
4024;BME280;2026;51.002;13.668;2023-02-17T10:32:14;99095.06;;;10.95;79.03
4024;BME280;2026;51.002;13.668;2023-02-17T10:37:27;99062.09;;;11.06;79.20
4024;BME280;2026;51.002;13.668;2023-02-17T10:42:37;99050.00;;;11.05;78.78
4024;BME280;2026;51.002;13.668;2023-02-17T10:47:41;99050.41;;;11.02;79.32
4024;BME280;2026;51.002;13.668;2023-02-17T10:52:44;99041.34;;;11.23;78.80
4024;BME280;2026;51.002;13.668;2023-02-17T10:57:52;99034.13;;;11.44;78.42
4024;BME280;2026;51.002;13.668;2023-02-17T11:02:57;99022.19;;;11.41;78.12
4024;BME280;2026;51.002;13.668;2023-02-17T11:08:01;99016.78;;;11.43;77.63
4024;BME280;2026;51.002;13.668;2023-02-17T11:13:27;99007.75;;;11.32;79.55
4024;BME280;2026;51.002;13.668;2023-02-17T11:18:33;99006.97;;;11.32;80.17
4024;BME280;2026;51.002;13.668;2023-02-17T11:23:47;99003.38;;;11.26;80.18
4024;BME280;2026;51.002;13.668;2023-02-17T11:28:52;98989.38;;;11.32;80.10
4024;BME280;2026;51.002;13.668;2023-02-17T11:33:55;98971.00;;;11.32;81.21
4024;BME280;2026;51.002;13.668;2023-02-17T11:38:58;98965.59;;;11.27;82.00
4024;BME280;2026;51.002;13.668;2023-02-17T11:44:04;98967.72;;;11.37;81.33
4024;BME280;2026;51.002;13.668;2023-02-17T11:54:59;98929.63;;;11.53;81.32
4024;BME280;2026;51.002;13.668;2023-02-17T12:00:18;98943.69;;;11.59;81.80
4024;BME280;2026;51.002;13.668;2023-02-17T12:05:25;98929.09;;;11.63;81.88
4024;BME280;2026;51.002;13.668;2023-02-17T12:10:44;98918.75;;;11.80;82.14
4024;BME280;2026;51.002;13.668;2023-02-17T12:16:04;98929.50;;;11.78;81.72
4024;BME280;2026;51.002;13.668;2023-02-17T12:21:17;98902.22;;;11.79;82.17
4024;BME280;2026;51.002;13.668;2023-02-17T12:26:29;98892.84;;;11.83;81.74
4024;BME280;2026;51.002;13.668;2023-02-17T12:31:47;98881.94;;;11.99;80.81
4024;BME280;2026;51.002;13.668;2023-02-17T12:36:56;98860.94;;;12.10;80.28
4024;BME280;2026;51.002;13.668;2023-02-17T12:42:03;98872.16;;;12.06;80.58
4024;BME280;2026;51.002;13.668;2023-02-17T12:47:15;98875.59;;;12.30;80.00
4024;BME280;2026;51.002;13.668;2023-02-17T12:52:25;98852.97;;;12.41;79.78
4024;BME280;2026;51.002;13.668;2023-02-17T12:57:37;98859.13;;;12.47;79.33
4024;BME280;2026;51.002;13.668;2023-02-17T13:02:45;98834.22;;;12.61;78.81
4024;BME280;2026;51.002;13.668;2023-02-17T13:07:52;98829.06;;;12.66;79.01
4024;BME280;2026;51.002;13.668;2023-02-17T13:13:01;98826.53;;;12.72;78.81
4024;BME280;2026;51.002;13.668;2023-02-17T13:18:11;98804.47;;;12.73;78.07
4024;BME280;2026;51.002;13.668;2023-02-17T13:23:29;98799.06;;;12.79;78.05
4024;BME280;2026;51.002;13.668;2023-02-17T13:28:36;98801.59;;;12.74;78.08
4024;BME280;2026;51.002;13.668;2023-02-17T13:33:44;98800.66;;;12.80;77.62
4024;BME280;2026;51.002;13.668;2023-02-17T13:38:56;98802.59;;;12.85;77.62
4024;BME280;2026;51.002;13.668;2023-02-17T13:44:19;98783.50;;;12.78;77.73
4024;BME280;2026;51.002;13.668;2023-02-17T13:49:29;98786.97;;;12.78;77.58
4024;BME280;2026;51.002;13.668;2023-02-17T13:54:33;98781.47;;;12.68;77.27
4024;BME280;2026;51.002;13.668;2023-02-17T13:59:36;98753.78;;;12.77;76.58
4024;BME280;2026;51.002;13.668;2023-02-17T14:04:42;98756.84;;;12.86;75.75
4024;BME280;2026;51.002;13.668;2023-02-17T14:09:51;98749.97;;;12.85;75.37
4024;BME280;2026;51.002;13.668;2023-02-17T14:14:55;98756.84;;;12.86;75.20
4024;BME280;2026;51.002;13.668;2023-02-17T14:19:59;98742.09;;;12.85;75.58
4024;BME280;2026;51.002;13.668;2023-02-17T14:25:04;98729.88;;;12.79;75.53
4024;BME280;2026;51.002;13.668;2023-02-17T14:30:13;98741.06;;;12.86;75.06
4024;BME280;2026;51.002;13.668;2023-02-17T14:35:22;98723.13;;;12.83;75.20
4024;BME280;2026;51.002;13.668;2023-02-17T14:40:25;98750.53;;;12.87;75.06
4024;BME280;2026;51.002;13.668;2023-02-17T14:45:28;98717.84;;;12.83;75.72
4024;BME280;2026;51.002;13.668;2023-02-17T14:50:33;98692.03;;;12.80;75.77
4024;BME280;2026;51.002;13.668;2023-02-17T14:55:45;98709.78;;;12.73;76.34
4024;BME280;2026;51.002;13.668;2023-02-17T15:00:50;98730.69;;;12.79;76.26
4024;BME280;2026;51.002;13.668;2023-02-17T15:05:54;98736.41;;;12.76;76.31
4024;BME280;2026;51.002;13.668;2023-02-17T15:10:58;98718.88;;;12.82;76.28
4024;BME280;2026;51.002;13.668;2023-02-17T15:16:01;98710.34;;;12.75;76.99
4024;BME280;2026;51.002;13.668;2023-02-17T15:21:15;98729.44;;;12.70;77.13
4024;BME280;2026;51.002;13.668;2023-02-17T15:26:19;98728.56;;;12.64;77.40
4024;BME280;2026;51.002;13.668;2023-02-17T15:31:22;98739.09;;;12.64;77.59
4024;BME280;2026;51.002;13.668;2023-02-17T15:36:27;98752.44;;;12.63;78.08
4024;BME280;2026;51.002;13.668;2023-02-17T15:41:30;98762.16;;;12.62;78.68
4024;BME280;2026;51.002;13.668;2023-02-17T15:46:34;98770.75;;;12.58;79.01
4024;BME280;2026;51.002;13.668;2023-02-17T15:51:39;98773.19;;;12.47;79.70
4024;BME280;2026;51.002;13.668;2023-02-17T15:56:45;98757.19;;;12.49;79.34
4024;BME280;2026;51.002;13.668;2023-02-17T16:01:49;98762.19;;;12.38;80.15
4024;BME280;2026;51.002;13.668;2023-02-17T16:06:53;98782.78;;;12.42;80.35
4024;BME280;2026;51.002;13.668;2023-02-17T16:11:56;98756.72;;;12.28;80.21
4024;BME280;2026;51.002;13.668;2023-02-17T16:17:01;98770.22;;;12.20;80.61
4024;BME280;2026;51.002;13.668;2023-02-17T16:22:07;98766.34;;;12.22;80.69
4024;BME280;2026;51.002;13.668;2023-02-17T16:27:13;98755.56;;;12.24;80.33
4024;BME280;2026;51.002;13.668;2023-02-17T16:32:17;98766.22;;;12.17;80.26
4024;BME280;2026;51.002;13.668;2023-02-17T16:37:21;98762.22;;;12.15;80.92
4024;BME280;2026;51.002;13.668;2023-02-17T16:42:25;98771.47;;;12.17;80.52
4024;BME280;2026;51.002;13.668;2023-02-17T16:47:29;98791.13;;;12.27;80.26
4024;BME280;2026;51.002;13.668;2023-02-17T16:52:33;98778.19;;;12.25;80.17
4024;BME280;2026;51.002;13.668;2023-02-17T16:57:36;98744.28;;;12.23;79.94
4024;BME280;2026;51.002;13.668;2023-02-17T17:02:39;98767.94;;;12.11;80.43
4024;BME280;2026;51.002;13.668;2023-02-17T17:07:44;98764.28;;;12.13;80.33
4024;BME280;2026;51.002;13.668;2023-02-17T17:12:47;98736.97;;;12.14;80.37
4024;BME280;2026;51.002;13.668;2023-02-17T17:17:54;98743.94;;;12.20;80.35
4024;BME280;2026;51.002;13.668;2023-02-17T17:23:00;98755.13;;;12.27;80.09
4024;BME280;2026;51.002;13.668;2023-02-17T17:28:04;98758.88;;;12.31;80.12
4024;BME280;2026;51.002;13.668;2023-02-17T17:33:06;98771.34;;;12.36;80.10
4024;BME280;2026;51.002;13.668;2023-02-17T17:38:12;98785.50;;;12.47;79.65
4024;BME280;2026;51.002;13.668;2023-02-17T17:43:24;98780.38;;;12.52;79.33
4024;BME280;2026;51.002;13.668;2023-02-17T17:48:27;98791.00;;;12.57;79.23
4024;BME280;2026;51.002;13.668;2023-02-17T17:53:31;98788.47;;;12.62;79.55
4024;BME280;2026;51.002;13.668;2023-02-17T17:58:34;98801.03;;;12.72;79.43
4024;BME280;2026;51.002;13.668;2023-02-17T18:03:40;98815.56;;;12.75;79.22
4024;BME280;2026;51.002;13.668;2023-02-17T18:08:46;98809.06;;;12.65;80.50
4024;BME280;2026;51.002;13.668;2023-02-17T18:13:53;98824.50;;;12.62;80.41
4024;BME280;2026;51.002;13.668;2023-02-17T18:18:58;98840.63;;;12.65;80.80
4024;BME280;2026;51.002;13.668;2023-02-17T18:24:04;98846.44;;;12.68;80.96
4024;BME280;2026;51.002;13.668;2023-02-17T18:29:07;98855.81;;;12.63;81.85
4024;BME280;2026;51.002;13.668;2023-02-17T18:34:10;98870.56;;;12.41;86.00
4024;BME280;2026;51.002;13.668;2023-02-17T18:39:15;98876.56;;;11.93;91.94
4024;BME280;2026;51.002;13.668;2023-02-17T18:44:18;98907.69;;;11.47;96.07
4024;BME280;2026;51.002;13.668;2023-02-17T18:49:21;98924.06;;;11.42;97.49
4024;BME280;2026;51.002;13.668;2023-02-17T18:54:25;98930.69;;;11.08;100.00
4024;BME280;2026;51.002;13.668;2023-02-17T18:59:28;98904.22;;;11.09;100.00
4024;BME280;2026;51.002;13.668;2023-02-17T19:04:31;98932.63;;;10.94;100.00
4024;BME280;2026;51.002;13.668;2023-02-17T19:09:38;98946.78;;;10.93;100.00
4024;BME280;2026;51.002;13.668;2023-02-17T19:14:43;98935.78;;;11.02;100.00
4024;BME280;2026;51.002;13.668;2023-02-17T19:19:46;98943.13;;;10.94;100.00
4024;BME280;2026;51.002;13.668;2023-02-17T19:24:52;98933.59;;;10.99;99.80
4024;BME280;2026;51.002;13.668;2023-02-17T19:29:55;98940.56;;;10.87;98.96
4024;BME280;2026;51.002;13.668;2023-02-17T19:34:58;98955.88;;;10.90;97.19
4024;BME280;2026;51.002;13.668;2023-02-17T19:40:03;98936.50;;;10.91;96.06
4024;BME280;2026;51.002;13.668;2023-02-17T19:45:07;98955.88;;;10.90;96.18
4024;BME280;2026;51.002;13.668;2023-02-17T19:50:10;98954.63;;;10.93;96.12
4024;BME280;2026;51.002;13.668;2023-02-17T19:55:14;98974.81;;;10.92;95.75
4024;BME280;2026;51.002;13.668;2023-02-17T20:00:18;98975.41;;;10.94;94.99
4024;BME280;2026;51.002;13.668;2023-02-17T20:05:21;98967.69;;;10.99;95.19
4024;BME280;2026;51.002;13.668;2023-02-17T20:10:25;98964.94;;;10.94;95.76
4024;BME280;2026;51.002;13.668;2023-02-17T20:15:28;98972.66;;;11.08;95.45
4024;BME280;2026;51.002;13.668;2023-02-17T20:20:31;98974.88;;;11.11;94.43
4024;BME280;2026;51.002;13.668;2023-02-17T20:25:39;98958.09;;;11.12;93.27
4024;BME280;2026;51.002;13.668;2023-02-17T20:30:42;98982.09;;;11.15;92.81
4024;BME280;2026;51.002;13.668;2023-02-17T20:35:46;98976.84;;;11.15;92.46
4024;BME280;2026;51.002;13.668;2023-02-17T20:40:50;98963.13;;;11.13;92.11
4024;BME280;2026;51.002;13.668;2023-02-17T20:45:53;98970.41;;;11.11;92.06
4024;BME280;2026;51.002;13.668;2023-02-17T20:50:57;98978.72;;;11.08;91.45
4024;BME280;2026;51.002;13.668;2023-02-17T20:56:01;98987.44;;;11.02;91.26
4024;BME280;2026;51.002;13.668;2023-02-17T21:01:05;98986.50;;;10.96;91.82
4024;BME280;2026;51.002;13.668;2023-02-17T21:06:18;98997.47;;;10.86;91.99
4024;BME280;2026;51.002;13.668;2023-02-17T21:11:23;98996.13;;;10.77;91.64
4024;BME280;2026;51.002;13.668;2023-02-17T21:16:30;98992.50;;;10.78;90.99
4024;BME280;2026;51.002;13.668;2023-02-17T21:21:33;98998.06;;;10.63;91.27
4024;BME280;2026;51.002;13.668;2023-02-17T21:26:38;99006.56;;;10.58;90.85
4024;BME280;2026;51.002;13.668;2023-02-17T21:31:41;99018.47;;;10.54;90.64
4024;BME280;2026;51.002;13.668;2023-02-17T21:36:45;99020.53;;;10.45;89.26
4024;BME280;2026;51.002;13.668;2023-02-17T21:41:49;99020.31;;;10.54;86.41
4024;BME280;2026;51.002;13.668;2023-02-17T21:46:52;99036.44;;;10.51;86.36
4024;BME280;2026;51.002;13.668;2023-02-17T21:51:55;99060.47;;;10.48;86.33
4024;BME280;2026;51.002;13.668;2023-02-17T21:56:59;99076.34;;;10.53;86.33
4024;BME280;2026;51.002;13.668;2023-02-17T22:02:04;99089.00;;;10.63;86.43
4024;BME280;2026;51.002;13.668;2023-02-17T22:07:09;99113.88;;;10.53;87.55
4024;BME280;2026;51.002;13.668;2023-02-17T22:12:13;99124.59;;;10.45;88.26
4024;BME280;2026;51.002;13.668;2023-02-17T22:17:16;99149.69;;;10.21;90.36
4024;BME280;2026;51.002;13.668;2023-02-17T22:22:19;99174.28;;;9.12;96.56
4024;BME280;2026;51.002;13.668;2023-02-17T22:27:23;99175.53;;;9.09;96.93
4024;BME280;2026;51.002;13.668;2023-02-17T22:32:26;99180.31;;;8.92;96.00
4024;BME280;2026;51.002;13.668;2023-02-17T22:37:29;99188.44;;;8.62;97.41
4024;BME280;2026;51.002;13.668;2023-02-17T22:42:34;99174.19;;;8.71;97.32
4024;BME280;2026;51.002;13.668;2023-02-17T22:47:37;99183.88;;;8.77;95.23
4024;BME280;2026;51.002;13.668;2023-02-17T22:52:40;99182.75;;;9.00;92.82
4024;BME280;2026;51.002;13.668;2023-02-17T22:57:44;99185.16;;;9.02;93.14
4024;BME280;2026;51.002;13.668;2023-02-17T23:02:47;99193.16;;;8.80;93.78
4024;BME280;2026;51.002;13.668;2023-02-17T23:07:50;99204.03;;;8.84;94.19
4024;BME280;2026;51.002;13.668;2023-02-17T23:12:55;99198.78;;;8.84;94.14
4024;BME280;2026;51.002;13.668;2023-02-17T23:17:58;99219.53;;;8.92;93.62
4024;BME280;2026;51.002;13.668;2023-02-17T23:23:01;99215.31;;;8.91;94.15
4024;BME280;2026;51.002;13.668;2023-02-17T23:28:05;99218.09;;;8.82;95.14
4024;BME280;2026;51.002;13.668;2023-02-17T23:33:08;99211.28;;;8.95;95.22
4024;BME280;2026;51.002;13.668;2023-02-17T23:38:12;99224.59;;;9.00;95.33
4024;BME280;2026;51.002;13.668;2023-02-17T23:43:18;99229.81;;;8.93;96.35
4024;BME280;2026;51.002;13.668;2023-02-17T23:48:22;99228.56;;;8.82;96.64
4024;BME280;2026;51.002;13.668;2023-02-17T23:53:25;99217.34;;;9.02;96.50
4024;BME280;2026;51.002;13.668;2023-02-17T23:58:30;99223.81;;;9.13;96.54
